Time;durP1;ratioP1;P1;durP2;ratioP2;P2;SDS_P1;SDS_P2;PMS_P1;PMS_P2;Temp;Humidity;BMP_temperature;BMP_pressure;BME280_temperature;BME280_humidity;BME280_pressure;Samples;Min_cycle;Max_cycle;Signal;HPM_P1;HPM_P2
2021/07/03 00:01:52;;;;;;;1.20;0.80;;;;;;;;;;5074896;28;20123;-50
2021/07/03 00:04:19;;;;;;;4.68;0.80;;;;;;;;;;5076764;28;20040;-50
2021/07/03 00:06:46;;;;;;;1.45;0.70;;;;;;;;;;5093551;28;20134;-47
2021/07/03 00:09:13;;;;;;;2.08;0.80;;;;;;;;;;5091741;28;20028;-50
2021/07/03 00:11:39;;;;;;;1.23;1.13;;;;;;;;;;5093546;28;20131;-47
2021/07/03 00:14:06;;;;;;;0.85;0.82;;;;;;;;;;5092382;28;20032;-49
2021/07/03 00:16:33;;;;;;;2.58;0.90;;;;;;;;;;5092111;28;20044;-48
2021/07/03 00:19:00;;;;;;;2.80;0.70;;;;;;;;;;5092309;28;20059;-50
2021/07/03 00:21:27;;;;;;;0.80;0.80;;;;;;;;;;5091440;28;20089;-50
2021/07/03 00:23:54;;;;;;;0.88;0.80;;;;;;;;;;5088795;28;20044;-50
2021/07/03 00:26:21;;;;;;;2.22;0.85;;;;;;;;;;5091065;28;20056;-48
2021/07/03 00:28:47;;;;;;;0.70;0.70;;;;;;;;;;5090748;28;20097;-48
2021/07/03 00:31:14;;;;;;;0.80;0.80;;;;;;;;;;5101512;28;20376;-50
2021/07/03 00:33:41;;;;;;;3.03;0.80;;;;;;;;;;5099718;28;20507;-51
2021/07/03 00:36:07;;;;;;;0.70;0.70;;;;;;;;;;5088237;28;20032;-49
2021/07/03 00:38:35;;;;;;;0.95;0.70;;;;;;;;;;5091609;28;20039;-48
2021/07/03 00:41:02;;;;;;;0.70;0.70;;;;;;;;;;5098801;28;20071;-48
2021/07/03 00:43:29;;;;;;;0.82;0.70;;;;;;;;;;5092974;28;20063;-48
2021/07/03 00:45:55;;;;;;;1.25;0.60;;;;;;;;;;5074505;28;20456;-50
2021/07/03 00:48:22;;;;;;;3.30;0.70;;;;;;;;;;5093002;28;20032;-50
2021/07/03 00:50:49;;;;;;;0.70;0.70;;;;;;;;;;5093529;28;20122;-50
2021/07/03 00:53:16;;;;;;;0.73;0.73;;;;;;;;;;5090469;28;20071;-49
2021/07/03 00:55:44;;;;;;;0.70;0.70;;;;;;;;;;5088253;28;20071;-48
2021/07/03 00:58:11;;;;;;;2.05;0.80;;;;;;;;;;5081065;28;20044;-51
2021/07/03 01:00:38;;;;;;;0.93;0.90;;;;;;;;;;5093012;28;20438;-51
2021/07/03 01:03:05;;;;;;;1.30;0.80;;;;;;;;;;5091428;28;20036;-49
2021/07/03 01:05:32;;;;;;;0.80;0.73;;;;;;;;;;5090904;28;20491;-48
2021/07/03 01:07:59;;;;;;;0.90;0.80;;;;;;;;;;5090904;28;20032;-51
2021/07/03 01:10:27;;;;;;;0.80;0.80;;;;;;;;;;5091243;28;20044;-49
2021/07/03 01:12:54;;;;;;;1.15;0.63;;;;;;;;;;5075580;28;20045;-47
2021/07/03 01:15:21;;;;;;;0.90;0.90;;;;;;;;;;5092431;28;20058;-50
2021/07/03 01:17:48;;;;;;;1.15;0.80;;;;;;;;;;5089824;28;20034;-50
2021/07/03 01:20:15;;;;;;;3.78;0.75;;;;;;;;;;5090618;28;20071;-50
2021/07/03 01:22:42;;;;;;;0.93;0.70;;;;;;;;;;5091418;28;20067;-50
2021/07/03 01:25:10;;;;;;;1.95;0.80;;;;;;;;;;5082890;28;20377;-48
2021/07/03 01:27:38;;;;;;;0.80;0.80;;;;;;;;;;5093561;28;20125;-51
2021/07/03 01:30:07;;;;;;;0.80;0.80;;;;;;;;;;5090395;28;20113;-50
2021/07/03 01:32:33;;;;;;;3.05;0.80;;;;;;;;;;5077718;28;20040;-50
2021/07/03 01:35:00;;;;;;;1.02;0.80;;;;;;;;;;5088272;28;20047;-53
2021/07/03 01:37:27;;;;;;;0.88;0.82;;;;;;;;;;5090765;28;20068;-48
2021/07/03 01:39:54;;;;;;;3.20;0.82;;;;;;;;;;5090983;28;20053;-50
2021/07/03 01:42:21;;;;;;;0.82;0.80;;;;;;;;;;5082499;28;20700;-50
2021/07/03 01:44:49;;;;;;;2.47;0.80;;;;;;;;;;5091757;28;20115;-49
2021/07/03 01:47:16;;;;;;;1.00;0.90;;;;;;;;;;5090994;28;20048;-49
2021/07/03 01:49:45;;;;;;;1.80;0.70;;;;;;;;;;5082034;28;20048;-51
2021/07/03 01:52:15;;;;;;;0.80;0.80;;;;;;;;;;5090452;28;20097;-52
2021/07/03 01:54:42;;;;;;;3.80;0.80;;;;;;;;;;5084939;28;20073;-51
2021/07/03 01:57:09;;;;;;;3.00;0.80;;;;;;;;;;5091000;28;20068;-50
2021/07/03 01:59:36;;;;;;;1.75;0.88;;;;;;;;;;5089518;28;20118;-51
2021/07/03 02:02:03;;;;;;;1.10;0.75;;;;;;;;;;5073393;28;20081;-51
2021/07/03 02:04:30;;;;;;;1.55;1.38;;;;;;;;;;5079036;28;20593;-52
2021/07/03 02:06:57;;;;;;;2.38;0.90;;;;;;;;;;5083469;28;20105;-50
2021/07/03 02:09:24;;;;;;;1.25;0.70;;;;;;;;;;5089990;28;20040;-50
2021/07/03 02:11:50;;;;;;;1.65;0.85;;;;;;;;;;5087534;28;20427;-51
2021/07/03 02:14:17;;;;;;;0.70;0.70;;;;;;;;;;5087374;28;20032;-51
2021/07/03 02:16:44;;;;;;;0.80;0.80;;;;;;;;;;5092147;28;20036;-52
2021/07/03 02:19:11;;;;;;;1.45;0.82;;;;;;;;;;5090432;28;20591;-52
2021/07/03 02:21:38;;;;;;;1.17;0.73;;;;;;;;;;5089578;28;20399;-52
2021/07/03 02:24:05;;;;;;;3.10;0.70;;;;;;;;;;5091060;28;20040;-49
2021/07/03 02:26:32;;;;;;;1.92;0.90;;;;;;;;;;5089452;28;20089;-51
2021/07/03 02:28:59;;;;;;;1.75;0.80;;;;;;;;;;5088791;28;20060;-51
2021/07/03 02:31:25;;;;;;;1.77;1.23;;;;;;;;;;5090206;28;20048;-51
2021/07/03 02:33:52;;;;;;;0.93;0.73;;;;;;;;;;5089364;28;20040;-49
2021/07/03 02:36:19;;;;;;;1.92;0.80;;;;;;;;;;5091586;28;20496;-50
2021/07/03 02:38:47;;;;;;;1.35;0.80;;;;;;;;;;5088660;28;20024;-51
2021/07/03 02:41:13;;;;;;;0.77;0.77;;;;;;;;;;5090821;28;20044;-50
2021/07/03 02:43:40;;;;;;;1.00;0.90;;;;;;;;;;5086947;28;20094;-51
2021/07/03 02:46:07;;;;;;;2.03;0.80;;;;;;;;;;5087988;28;20044;-52
2021/07/03 02:48:34;;;;;;;1.00;0.90;;;;;;;;;;5091211;28;20032;-51
2021/07/03 02:51:00;;;;;;;2.83;0.90;;;;;;;;;;5089001;28;20064;-51
2021/07/03 02:53:27;;;;;;;1.25;0.80;;;;;;;;;;5078046;28;20048;-52
2021/07/03 02:55:54;;;;;;;2.80;1.13;;;;;;;;;;5085849;28;20404;-50
2021/07/03 02:58:21;;;;;;;0.80;0.80;;;;;;;;;;5086337;28;20145;-49
2021/07/03 03:00:47;;;;;;;2.90;0.80;;;;;;;;;;5090469;28;20074;-51
2021/07/03 03:03:14;;;;;;;0.93;0.90;;;;;;;;;;5087786;28;20047;-51
2021/07/03 03:05:41;;;;;;;0.77;0.77;;;;;;;;;;5072918;28;20048;-52
2021/07/03 03:08:08;;;;;;;1.52;1.42;;;;;;;;;;5088724;28;20052;-52
2021/07/03 03:10:34;;;;;;;2.80;0.80;;;;;;;;;;5089054;28;20072;-50
2021/07/03 03:13:01;;;;;;;2.25;0.80;;;;;;;;;;5079933;28;20044;-52
2021/07/03 03:15:28;;;;;;;5.07;0.70;;;;;;;;;;5087989;28;20040;-52
2021/07/03 03:17:55;;;;;;;1.02;0.80;;;;;;;;;;5090111;28;20036;-51
2021/07/03 03:20:22;;;;;;;1.00;0.82;;;;;;;;;;5089584;28;20051;-52
2021/07/03 03:22:48;;;;;;;1.85;1.05;;;;;;;;;;5087240;28;20032;-52
2021/07/03 03:25:15;;;;;;;3.67;1.75;;;;;;;;;;5087185;28;20067;-50
2021/07/03 03:27:42;;;;;;;0.80;0.80;;;;;;;;;;5087749;28;20043;-51
2021/07/03 03:30:09;;;;;;;2.63;0.82;;;;;;;;;;5087149;28;20125;-51
2021/07/03 03:32:36;;;;;;;0.82;0.82;;;;;;;;;;5083296;28;20064;-52
2021/07/03 03:35:04;;;;;;;4.53;0.80;;;;;;;;;;5076465;28;20047;-51
2021/07/03 03:37:31;;;;;;;2.25;0.80;;;;;;;;;;5075921;28;20068;-51
2021/07/03 03:39:58;;;;;;;0.80;0.80;;;;;;;;;;5087479;28;20067;-52
2021/07/03 03:42:24;;;;;;;0.80;0.80;;;;;;;;;;5078532;28;20379;-48
2021/07/03 03:44:51;;;;;;;5.13;1.10;;;;;;;;;;5090539;28;20055;-50
2021/07/03 03:47:18;;;;;;;1.05;0.85;;;;;;;;;;5086473;28;20043;-49
2021/07/03 03:49:45;;;;;;;1.90;0.80;;;;;;;;;;5089816;28;20396;-52
2021/07/03 03:52:12;;;;;;;1.48;0.90;;;;;;;;;;5088678;28;20071;-51
2021/07/03 03:54:38;;;;;;;1.67;1.15;;;;;;;;;;5088318;28;20075;-50
2021/07/03 03:57:24;;;;;;;0.88;0.85;;;;;;;;;;5090512;28;20032;-52
2021/07/03 03:59:51;;;;;;;0.80;0.80;;;;;;;;;;5089227;28;20040;-51
2021/07/03 04:02:18;;;;;;;0.80;0.80;;;;;;;;;;5087275;28;20044;-51
2021/07/03 04:04:45;;;;;;;1.92;0.80;;;;;;;;;;5087258;28;20047;-51
2021/07/03 04:07:12;;;;;;;1.40;0.90;;;;;;;;;;5087192;28;20047;-51
2021/07/03 04:09:39;;;;;;;1.80;1.00;;;;;;;;;;5089624;28;20040;-51
2021/07/03 04:12:06;;;;;;;1.98;1.13;;;;;;;;;;5087527;28;20086;-52
2021/07/03 04:14:33;;;;;;;2.92;0.90;;;;;;;;;;5087510;28;20102;-50
2021/07/03 04:17:00;;;;;;;1.10;1.10;;;;;;;;;;5089207;28;20036;-51
2021/07/03 04:19:26;;;;;;;1.13;0.85;;;;;;;;;;5087556;28;20120;-52
2021/07/03 04:21:53;;;;;;;1.05;0.90;;;;;;;;;;5089051;28;20098;-52
2021/07/03 04:24:20;;;;;;;1.48;0.95;;;;;;;;;;5069653;28;20487;-52
2021/07/03 04:26:47;;;;;;;1.58;1.00;;;;;;;;;;5088288;28;20076;-51
2021/07/03 04:29:14;;;;;;;1.77;1.00;;;;;;;;;;5089622;28;20040;-50
2021/07/03 04:31:41;;;;;;;3.90;1.55;;;;;;;;;;5086438;28;20044;-51
2021/07/03 04:34:08;;;;;;;0.80;0.80;;;;;;;;;;5073731;28;20049;-51
2021/07/03 04:36:34;;;;;;;0.82;0.82;;;;;;;;;;5086639;28;20606;-51
2021/07/03 04:39:02;;;;;;;1.17;1.08;;;;;;;;;;5086699;28;20380;-51
2021/07/03 04:41:29;;;;;;;0.90;0.90;;;;;;;;;;5090116;28;20408;-53
2021/07/03 04:43:56;;;;;;;2.95;1.63;;;;;;;;;;5088005;28;20032;-52
2021/07/03 04:46:23;;;;;;;1.20;0.82;;;;;;;;;;5089984;28;20131;-51
2021/07/03 04:48:49;;;;;;;0.80;0.80;;;;;;;;;;5090223;28;20036;-50
2021/07/03 04:51:16;;;;;;;2.88;0.80;;;;;;;;;;5090700;28;20066;-52
2021/07/03 04:53:43;;;;;;;1.25;0.90;;;;;;;;;;5087410;28;20074;-52
2021/07/03 04:56:10;;;;;;;0.80;0.80;;;;;;;;;;5092301;28;20067;-52
2021/07/03 04:58:36;;;;;;;2.45;0.80;;;;;;;;;;5084904;28;20032;-50
2021/07/03 05:01:03;;;;;;;1.20;0.80;;;;;;;;;;5090527;28;20067;-50
2021/07/03 05:03:30;;;;;;;1.38;0.80;;;;;;;;;;5090888;28;20058;-52
2021/07/03 05:05:57;;;;;;;0.80;0.80;;;;;;;;;;5093595;28;20047;-52
2021/07/03 05:08:23;;;;;;;2.05;1.17;;;;;;;;;;5089555;28;20558;-51
2021/07/03 05:10:51;;;;;;;1.05;0.95;;;;;;;;;;5078160;28;20035;-52
2021/07/03 05:13:18;;;;;;;1.05;0.80;;;;;;;;;;5092429;28;20093;-50
2021/07/03 05:15:45;;;;;;;1.27;0.90;;;;;;;;;;5090772;28;20157;-51
2021/07/03 05:18:12;;;;;;;1.20;0.90;;;;;;;;;;5093667;28;20062;-51
2021/07/03 05:20:39;;;;;;;1.13;1.02;;;;;;;;;;5089212;28;20036;-51
2021/07/03 05:23:05;;;;;;;1.95;0.80;;;;;;;;;;5087434;28;20053;-51
2021/07/03 05:25:32;;;;;;;0.80;0.80;;;;;;;;;;5091993;28;20040;-52
2021/07/03 05:27:59;;;;;;;2.58;0.80;;;;;;;;;;5085996;28;20094;-52
2021/07/03 05:30:25;;;;;;;1.13;1.13;;;;;;;;;;5090244;28;20097;-50
2021/07/03 05:32:52;;;;;;;1.35;0.80;;;;;;;;;;5091403;28;20044;-51
2021/07/03 05:35:19;;;;;;;1.58;0.80;;;;;;;;;;5090446;28;20193;-50
2021/07/03 05:37:45;;;;;;;1.45;0.80;;;;;;;;;;5092540;28;20071;-50
2021/07/03 05:40:13;;;;;;;1.52;0.80;;;;;;;;;;5091189;28;20525;-50
2021/07/03 05:42:40;;;;;;;1.00;0.90;;;;;;;;;;5081102;28;20047;-51
2021/07/03 05:45:09;;;;;;;0.80;0.80;;;;;;;;;;5088967;28;20044;-50
2021/07/03 05:47:36;;;;;;;0.70;0.70;;;;;;;;;;5091462;28;20048;-51
2021/07/03 05:50:04;;;;;;;0.90;0.88;;;;;;;;;;5081232;28;20656;-51
2021/07/03 05:52:31;;;;;;;1.20;0.70;;;;;;;;;;5082707;28;20044;-48
2021/07/03 05:54:58;;;;;;;1.25;0.90;;;;;;;;;;5093262;28;20047;-50
2021/07/03 05:57:28;;;;;;;1.05;0.80;;;;;;;;;;5091396;28;20480;-52
2021/07/03 05:59:54;;;;;;;0.80;0.80;;;;;;;;;;5081123;28;20032;-51
2021/07/03 06:02:21;;;;;;;1.40;0.80;;;;;;;;;;5080782;28;20045;-51
2021/07/03 06:04:48;;;;;;;3.22;1.05;;;;;;;;;;5087949;28;20055;-51
2021/07/03 06:07:15;;;;;;;4.60;0.93;;;;;;;;;;5090285;28;20068;-51
2021/07/03 06:09:42;;;;;;;6.80;1.00;;;;;;;;;;5085046;28;20093;-49
2021/07/03 06:12:09;;;;;;;1.95;0.93;;;;;;;;;;5079541;28;20040;-49
2021/07/03 06:14:36;;;;;;;2.08;0.80;;;;;;;;;;5092396;28;20028;-49
2021/07/03 06:17:02;;;;;;;2.17;0.80;;;;;;;;;;5085283;28;20020;-48
2021/07/03 06:19:29;;;;;;;0.80;0.80;;;;;;;;;;5088694;28;20036;-47
2021/07/03 06:21:56;;;;;;;0.90;0.90;;;;;;;;;;5084623;28;20036;-47
2021/07/03 06:24:23;;;;;;;2.75;0.80;;;;;;;;;;5078418;28;20071;-49
2021/07/03 06:26:49;;;;;;;2.47;0.70;;;;;;;;;;5092250;28;20508;-51
2021/07/03 06:29:16;;;;;;;0.75;0.75;;;;;;;;;;5072412;28;20036;-50
2021/07/03 06:31:43;;;;;;;0.75;0.75;;;;;;;;;;5090281;28;20055;-50
2021/07/03 06:34:09;;;;;;;2.88;0.70;;;;;;;;;;5082784;28;20060;-49
2021/07/03 06:36:36;;;;;;;1.10;0.80;;;;;;;;;;5080092;28;20047;-50
2021/07/03 06:39:04;;;;;;;0.80;0.80;;;;;;;;;;5106073;28;20066;-50
2021/07/03 06:41:31;;;;;;;5.95;0.75;;;;;;;;;;5090819;28;20067;-51
2021/07/03 06:43:58;;;;;;;1.10;0.70;;;;;;;;;;5079234;28;20119;-51
2021/07/03 06:46:24;;;;;;;2.33;0.80;;;;;;;;;;5086318;28;20163;-51
2021/07/03 06:48:51;;;;;;;2.75;1.00;;;;;;;;;;5072960;28;20053;-51
2021/07/03 06:51:18;;;;;;;1.13;0.80;;;;;;;;;;5079589;28;20090;-51
2021/07/03 06:53:45;;;;;;;1.75;0.80;;;;;;;;;;5071581;28;20105;-50
2021/07/03 06:56:12;;;;;;;3.78;1.20;;;;;;;;;;5072933;28;20036;-50
2021/07/03 06:58:38;;;;;;;0.70;0.70;;;;;;;;;;5088612;28;20447;-51
2021/07/03 07:01:05;;;;;;;2.30;1.33;;;;;;;;;;5088619;28;20518;-50
2021/07/03 07:03:32;;;;;;;0.70;0.70;;;;;;;;;;5077906;28;20116;-49
2021/07/03 07:05:59;;;;;;;0.70;0.68;;;;;;;;;;5089285;28;20064;-47
2021/07/03 07:08:26;;;;;;;1.85;0.70;;;;;;;;;;5085928;28;20047;-50
2021/07/03 07:10:52;;;;;;;1.73;0.70;;;;;;;;;;5101002;28;20082;-49
2021/07/03 07:13:19;;;;;;;2.72;0.70;;;;;;;;;;5094545;28;20040;-51
2021/07/03 07:15:46;;;;;;;6.70;1.05;;;;;;;;;;5080892;28;20046;-52
2021/07/03 07:18:13;;;;;;;0.88;0.70;;;;;;;;;;5086711;28;20032;-49
2021/07/03 07:20:39;;;;;;;1.13;0.70;;;;;;;;;;5086274;28;20442;-54
2021/07/03 07:23:06;;;;;;;4.93;0.85;;;;;;;;;;5089501;28;20097;-50
2021/07/03 07:25:33;;;;;;;20.08;1.15;;;;;;;;;;5088322;28;20062;-50
2021/07/03 07:28:00;;;;;;;606.08;544.80;;;;;;;;;;5080639;28;20036;-50
2021/07/03 07:30:27;;;;;;;8.98;8.13;;;;;;;;;;5083993;28;20453;-50
2021/07/03 07:32:54;;;;;;;1.73;1.63;;;;;;;;;;5086425;28;20567;-51
2021/07/03 07:35:20;;;;;;;0.93;0.80;;;;;;;;;;5076596;28;20497;-49
2021/07/03 07:37:48;;;;;;;2.75;0.70;;;;;;;;;;5083267;28;20034;-51
2021/07/03 07:40:16;;;;;;;2.17;0.70;;;;;;;;;;5075989;28;20120;-50
2021/07/03 07:42:42;;;;;;;0.80;0.60;;;;;;;;;;5090892;28;20090;-52
2021/07/03 07:45:10;;;;;;;1.27;0.60;;;;;;;;;;5086764;28;20047;-52
2021/07/03 07:47:45;;;;;;;1.15;0.60;;;;;;;;;;5089437;28;20054;-51
2021/07/03 07:50:12;;;;;;;2.15;0.60;;;;;;;;;;5086863;28;20072;-51
2021/07/03 07:52:38;;;;;;;1.02;0.63;;;;;;;;;;5087457;28;20113;-52
2021/07/03 07:55:06;;;;;;;2.65;0.60;;;;;;;;;;5079967;28;20044;-52
2021/07/03 07:57:33;;;;;;;0.60;0.60;;;;;;;;;;5081130;28;20058;-50
2021/07/03 08:00:01;;;;;;;1.85;0.60;;;;;;;;;;5078662;28;20028;-50
2021/07/03 08:02:30;;;;;;;0.50;0.50;;;;;;;;;;5085761;28;20111;-51
2021/07/03 08:04:56;;;;;;;0.50;0.50;;;;;;;;;;5077449;28;20075;-52
2021/07/03 08:07:23;;;;;;;2.60;0.60;;;;;;;;;;5079019;28;20072;-52
2021/07/03 08:09:50;;;;;;;0.90;0.60;;;;;;;;;;5086435;28;20086;-52
2021/07/03 08:12:17;;;;;;;5.15;0.70;;;;;;;;;;5074761;28;20110;-52
2021/07/03 08:14:44;;;;;;;3.03;0.50;;;;;;;;;;5084549;28;20554;-51
2021/07/03 08:17:11;;;;;;;1.40;0.40;;;;;;;;;;5083996;28;20388;-52
2021/07/03 08:19:38;;;;;;;2.38;0.45;;;;;;;;;;5091025;28;20112;-52
2021/07/03 08:22:05;;;;;;;1.52;0.47;;;;;;;;;;5088212;28;20206;-52
2021/07/03 08:24:31;;;;;;;0.50;0.50;;;;;;;;;;5093460;28;20064;-52
2021/07/03 08:26:59;;;;;;;1.70;0.40;;;;;;;;;;5093575;28;20063;-52
2021/07/03 08:29:26;;;;;;;1.65;0.40;;;;;;;;;;5092422;28;20531;-52
2021/07/03 08:31:52;;;;;;;0.43;0.40;;;;;;;;;;5081726;28;20722;-52
2021/07/03 08:34:19;;;;;;;0.40;0.40;;;;;;;;;;5092133;28;20100;-52
2021/07/03 08:36:46;;;;;;;0.73;0.40;;;;;;;;;;5091442;28;20476;-53
2021/07/03 08:39:13;;;;;;;0.95;0.43;;;;;;;;;;5093718;28;20040;-52
2021/07/03 08:41:40;;;;;;;0.90;0.40;;;;;;;;;;5098875;28;20119;-51
2021/07/03 08:44:10;;;;;;;2.67;0.40;;;;;;;;;;5080190;28;20119;-52
2021/07/03 08:46:36;;;;;;;0.82;0.40;;;;;;;;;;5088741;28;20040;-52
2021/07/03 08:49:04;;;;;;;0.40;0.40;;;;;;;;;;5090254;28;20040;-53
2021/07/03 08:51:30;;;;;;;6.90;0.75;;;;;;;;;;5092529;28;20603;-53
2021/07/03 08:53:57;;;;;;;2.67;0.30;;;;;;;;;;5090294;28;20047;-53
2021/07/03 08:56:24;;;;;;;0.55;0.30;;;;;;;;;;5093350;28;20087;-53
2021/07/03 08:58:51;;;;;;;2.58;0.40;;;;;;;;;;5088199;28;20120;-52
2021/07/03 09:01:18;;;;;;;0.40;0.40;;;;;;;;;;5082314;28;20045;-53
2021/07/03 09:03:55;;;;;;;1.67;0.40;;;;;;;;;;5091815;28;20050;-52
2021/07/03 09:06:29;;;;;;;0.50;0.30;;;;;;;;;;5088469;28;20101;-52
2021/07/03 09:08:56;;;;;;;3.05;0.30;;;;;;;;;;5090516;28;20044;-53
2021/07/03 09:11:23;;;;;;;1.17;0.40;;;;;;;;;;5090142;28;20118;-54
2021/07/03 09:13:57;;;;;;;0.68;0.38;;;;;;;;;;5088849;28;20117;-53
2021/07/03 09:16:34;;;;;;;1.23;0.32;;;;;;;;;;5087759;28;20111;-52
2021/07/03 09:19:02;;;;;;;1.80;0.30;;;;;;;;;;5089203;28;20035;-54
2021/07/03 09:21:29;;;;;;;0.55;0.40;;;;;;;;;;5079953;28;20115;-53
2021/07/03 09:23:57;;;;;;;2.35;0.38;;;;;;;;;;5093052;28;20563;-54
2021/07/03 09:26:24;;;;;;;1.52;0.32;;;;;;;;;;5087184;28;20089;-53
2021/07/03 09:28:51;;;;;;;2.13;0.30;;;;;;;;;;5091967;28;20036;-51
2021/07/03 09:31:19;;;;;;;1.40;0.40;;;;;;;;;;5087437;28;20455;-53
2021/07/03 09:33:49;;;;;;;1.60;0.30;;;;;;;;;;5072244;28;20484;-54
2021/07/03 09:36:23;;;;;;;1.13;0.30;;;;;;;;;;5070716;28;20079;-52
2021/07/03 09:38:51;;;;;;;0.93;0.30;;;;;;;;;;5068249;28;21800;-53
2021/07/03 09:41:30;;;;;;;0.40;0.30;;;;;;;;;;5077399;28;20040;-52
2021/07/03 09:43:59;;;;;;;0.40;0.30;;;;;;;;;;5070094;28;20040;-54
2021/07/03 09:46:28;;;;;;;0.50;0.30;;;;;;;;;;5073235;28;20095;-52
2021/07/03 09:49:00;;;;;;;1.27;0.30;;;;;;;;;;5070648;28;20040;-53
2021/07/03 09:51:28;;;;;;;0.40;0.30;;;;;;;;;;5072487;28;20036;-53
2021/07/03 09:53:55;;;;;;;1.00;0.40;;;;;;;;;;5080100;28;20120;-54
2021/07/03 09:56:21;;;;;;;0.40;0.35;;;;;;;;;;5071578;28;20132;-54
2021/07/03 09:58:48;;;;;;;0.30;0.30;;;;;;;;;;5070600;28;20052;-53
2021/07/03 10:01:15;;;;;;;0.88;0.38;;;;;;;;;;5065892;28;20067;-53
2021/07/03 10:03:43;;;;;;;2.08;0.40;;;;;;;;;;5070546;28;20032;-54
2021/07/03 10:06:13;;;;;;;2.65;0.30;;;;;;;;;;5070494;28;20036;-54
2021/07/03 10:08:42;;;;;;;0.93;0.38;;;;;;;;;;5071584;28;20040;-58
2021/07/03 10:11:10;;;;;;;0.32;0.30;;;;;;;;;;5068160;28;20090;-61
2021/07/03 10:13:39;;;;;;;0.30;0.20;;;;;;;;;;5070296;28;20515;-61
2021/07/03 10:16:08;;;;;;;0.93;0.38;;;;;;;;;;5071386;28;20384;-60
2021/07/03 10:18:35;;;;;;;0.30;0.30;;;;;;;;;;5069233;28;20422;-61
2021/07/03 10:21:09;;;;;;;1.73;0.40;;;;;;;;;;5071724;28;20064;-60
2021/07/03 10:23:40;;;;;;;0.40;0.30;;;;;;;;;;5070983;28;20480;-61
2021/07/03 10:26:07;;;;;;;0.32;0.20;;;;;;;;;;5068319;28;20057;-60
2021/07/03 10:28:35;;;;;;;0.75;0.30;;;;;;;;;;5071851;28;20045;-61
2021/07/03 10:31:07;;;;;;;0.30;0.30;;;;;;;;;;5068832;28;20040;-62
2021/07/03 10:33:44;;;;;;;1.23;0.30;;;;;;;;;;5071990;28;20083;-61
2021/07/03 10:36:21;;;;;;;0.50;0.40;;;;;;;;;;5089901;28;20156;-60
2021/07/03 10:38:48;;;;;;;0.43;0.25;;;;;;;;;;5089750;28;20044;-61
2021/07/03 10:41:20;;;;;;;0.50;0.30;;;;;;;;;;5097445;28;20040;-61
2021/07/03 10:43:49;;;;;;;1.58;0.30;;;;;;;;;;5089819;28;20048;-61
2021/07/03 10:46:29;;;;;;;0.32;0.30;;;;;;;;;;5085555;28;20040;-60
2021/07/03 10:48:57;;;;;;;1.38;0.30;;;;;;;;;;5083187;28;20063;-60
2021/07/03 10:51:28;;;;;;;0.73;0.30;;;;;;;;;;5085592;28;20070;-60
2021/07/03 10:54:10;;;;;;;0.88;0.40;;;;;;;;;;5090250;28;20067;-60
2021/07/03 10:56:51;;;;;;;0.57;0.40;;;;;;;;;;5092195;28;20044;-60
2021/07/03 10:59:23;;;;;;;0.30;0.30;;;;;;;;;;5088798;28;20036;-61
2021/07/03 11:01:51;;;;;;;2.47;0.40;;;;;;;;;;5076974;28;20075;-60
2021/07/03 11:04:19;;;;;;;1.00;0.30;;;;;;;;;;5089199;28;20038;-60
2021/07/03 11:06:50;;;;;;;0.88;0.30;;;;;;;;;;5090107;28;20584;-60
2021/07/03 11:09:21;;;;;;;0.82;0.30;;;;;;;;;;5090452;28;20089;-60
2021/07/03 11:11:47;;;;;;;0.40;0.40;;;;;;;;;;5089085;28;20119;-60
2021/07/03 11:14:22;;;;;;;0.30;0.30;;;;;;;;;;5072570;28;20090;-60
2021/07/03 11:16:53;;;;;;;3.47;0.40;;;;;;;;;;5090326;28;20119;-61
2021/07/03 11:19:21;;;;;;;0.30;0.30;;;;;;;;;;5086232;28;20165;-61
2021/07/03 11:21:47;;;;;;;0.70;0.40;;;;;;;;;;5084973;28;20124;-60
2021/07/03 11:24:14;;;;;;;1.83;0.30;;;;;;;;;;5064239;28;20093;-60
2021/07/03 11:26:41;;;;;;;0.40;0.40;;;;;;;;;;5083786;28;20044;-61
2021/07/03 11:29:08;;;;;;;1.35;0.40;;;;;;;;;;5077799;28;20123;-57
2021/07/03 11:31:34;;;;;;;0.95;0.40;;;;;;;;;;5083308;28;20066;-56
2021/07/03 11:34:01;;;;;;;0.40;0.40;;;;;;;;;;5090079;28;20043;-56
2021/07/03 11:36:28;;;;;;;0.40;0.40;;;;;;;;;;5086798;28;20047;-55
2021/07/03 11:38:58;;;;;;;0.40;0.40;;;;;;;;;;5084498;28;20091;-57
2021/07/03 11:41:26;;;;;;;0.40;0.40;;;;;;;;;;5086944;28;20063;-57
2021/07/03 11:44:04;;;;;;;0.47;0.40;;;;;;;;;;5087759;28;20031;-57
2021/07/03 11:46:31;;;;;;;1.02;0.50;;;;;;;;;;5075339;28;20527;-56
2021/07/03 11:48:58;;;;;;;0.80;0.30;;;;;;;;;;5097966;28;20227;-55
2021/07/03 11:51:24;;;;;;;1.77;0.40;;;;;;;;;;5089129;28;20040;-57
2021/07/03 11:53:52;;;;;;;0.77;0.40;;;;;;;;;;5075655;28;20036;-57
2021/07/03 11:56:19;;;;;;;0.65;0.40;;;;;;;;;;5086562;28;20040;-56
2021/07/03 11:58:47;;;;;;;0.95;0.40;;;;;;;;;;5091952;28;20120;-57
2021/07/03 12:01:16;;;;;;;0.50;0.40;;;;;;;;;;5094547;28;20392;-57
2021/07/03 12:03:43;;;;;;;0.30;0.30;;;;;;;;;;5069247;28;20093;-57
2021/07/03 12:06:16;;;;;;;0.40;0.30;;;;;;;;;;5094568;28;20496;-56
2021/07/03 12:08:43;;;;;;;2.38;0.40;;;;;;;;;;5088155;28;20055;-57
2021/07/03 12:11:11;;;;;;;0.73;0.40;;;;;;;;;;5091271;28;20089;-58
2021/07/03 12:13:39;;;;;;;0.50;0.40;;;;;;;;;;5093751;28;20507;-57
2021/07/03 12:16:09;;;;;;;0.65;0.40;;;;;;;;;;5092116;28;20089;-57
2021/07/03 12:18:38;;;;;;;1.20;0.40;;;;;;;;;;5092902;28;20040;-57
2021/07/03 12:21:07;;;;;;;0.40;0.40;;;;;;;;;;5087320;28;20045;-56
2021/07/03 12:23:35;;;;;;;0.30;0.30;;;;;;;;;;5092179;28;20067;-57
2021/07/03 12:26:03;;;;;;;0.40;0.40;;;;;;;;;;5093547;28;20068;-56
2021/07/03 12:28:31;;;;;;;0.95;0.30;;;;;;;;;;5091285;28;20109;-57
2021/07/03 12:31:04;;;;;;;0.68;0.32;;;;;;;;;;5092256;28;20424;-57
2021/07/03 12:33:31;;;;;;;0.40;0.40;;;;;;;;;;5085210;28;20090;-57
2021/07/03 12:35:57;;;;;;;1.40;0.32;;;;;;;;;;5091448;28;20078;-57
2021/07/03 12:38:25;;;;;;;0.40;0.40;;;;;;;;;;5092225;28;20074;-57
2021/07/03 12:40:52;;;;;;;1.75;0.40;;;;;;;;;;5089636;28;20217;-57
2021/07/03 12:43:28;;;;;;;0.30;0.30;;;;;;;;;;5081915;28;20035;-56
2021/07/03 12:46:02;;;;;;;2.17;0.40;;;;;;;;;;5093471;28;20052;-56
2021/07/03 12:48:39;;;;;;;0.95;0.55;;;;;;;;;;5093126;28;20419;-57
2021/07/03 12:51:10;;;;;;;0.30;0.30;;;;;;;;;;5084070;28;20040;-58
2021/07/03 12:53:37;;;;;;;1.45;0.30;;;;;;;;;;5092763;28;20116;-57
2021/07/03 12:56:05;;;;;;;0.32;0.32;;;;;;;;;;5091207;28;20143;-55
2021/07/03 12:58:34;;;;;;;0.82;0.40;;;;;;;;;;5093038;28;20044;-57
2021/07/03 13:01:04;;;;;;;0.68;0.30;;;;;;;;;;5092329;28;20108;-57
2021/07/03 13:03:31;;;;;;;1.58;0.30;;;;;;;;;;5091757;28;20036;-57
2021/07/03 13:06:00;;;;;;;1.17;0.30;;;;;;;;;;5090173;28;20119;-58
2021/07/03 13:08:28;;;;;;;0.30;0.30;;;;;;;;;;5089481;28;20039;-57
2021/07/03 13:10:55;;;;;;;0.80;0.40;;;;;;;;;;5075900;28;20098;-57
2021/07/03 13:13:22;;;;;;;1.38;0.40;;;;;;;;;;5091309;28;20067;-56
2021/07/03 13:15:49;;;;;;;2.05;0.40;;;;;;;;;;5092464;28;20044;-57
2021/07/03 13:18:17;;;;;;;0.30;0.30;;;;;;;;;;5080105;28;20435;-57
2021/07/03 13:20:44;;;;;;;0.93;0.50;;;;;;;;;;5091549;28;20067;-57
2021/07/03 13:23:27;;;;;;;0.30;0.30;;;;;;;;;;5090500;28;20028;-56
2021/07/03 13:25:54;;;;;;;0.95;0.40;;;;;;;;;;5092432;28;20037;-57
2021/07/03 13:28:21;;;;;;;0.30;0.30;;;;;;;;;;5092120;28;20126;-56
2021/07/03 13:30:47;;;;;;;0.40;0.40;;;;;;;;;;5075989;28;20106;-57
2021/07/03 13:33:14;;;;;;;0.35;0.32;;;;;;;;;;5089757;28;20089;-57
2021/07/03 13:35:41;;;;;;;1.00;0.40;;;;;;;;;;5083795;28;20084;-56
2021/07/03 13:38:08;;;;;;;0.82;0.40;;;;;;;;;;5086978;28;20039;-57
2021/07/03 13:40:34;;;;;;;0.75;0.75;;;;;;;;;;5087254;28;20044;-57
2021/07/03 13:43:01;;;;;;;0.68;0.30;;;;;;;;;;5088316;28;20087;-57
2021/07/03 13:45:28;;;;;;;0.68;0.40;;;;;;;;;;5086734;28;20758;-57
2021/07/03 13:47:55;;;;;;;0.85;0.35;;;;;;;;;;5078812;28;20115;-57
2021/07/03 13:50:21;;;;;;;0.38;0.38;;;;;;;;;;5091396;28;20067;-56
2021/07/03 13:52:48;;;;;;;0.30;0.30;;;;;;;;;;5090003;28;20480;-57
2021/07/03 13:55:15;;;;;;;1.13;0.30;;;;;;;;;;5091972;28;20754;-57
2021/07/03 13:57:41;;;;;;;0.40;0.40;;;;;;;;;;5085737;28;20068;-57
2021/07/03 14:00:09;;;;;;;0.40;0.40;;;;;;;;;;5079595;28;20062;-54
2021/07/03 14:02:42;;;;;;;0.40;0.40;;;;;;;;;;5093621;28;20090;-57
2021/07/03 14:05:10;;;;;;;0.50;0.40;;;;;;;;;;5088786;28;20093;-56
2021/07/03 14:07:37;;;;;;;1.55;0.40;;;;;;;;;;5089970;28;20075;-54
2021/07/03 14:10:05;;;;;;;1.00;0.30;;;;;;;;;;5092764;28;20082;-56
2021/07/03 14:12:32;;;;;;;1.45;0.30;;;;;;;;;;5080105;28;20036;-57
2021/07/03 14:15:00;;;;;;;1.13;0.30;;;;;;;;;;5077052;28;20044;-57
2021/07/03 14:17:28;;;;;;;2.50;0.40;;;;;;;;;;5088024;28;20515;-57
2021/07/03 14:19:55;;;;;;;1.02;0.40;;;;;;;;;;5090109;28;20040;-56
2021/07/03 14:22:22;;;;;;;1.67;0.30;;;;;;;;;;5083297;28;20484;-57
2021/07/03 14:24:49;;;;;;;0.85;0.40;;;;;;;;;;5090617;28;20043;-57
2021/07/03 14:27:15;;;;;;;0.40;0.40;;;;;;;;;;5090746;28;20039;-56
2021/07/03 14:29:42;;;;;;;0.43;0.40;;;;;;;;;;5092634;28;20491;-57
2021/07/03 14:32:09;;;;;;;0.40;0.40;;;;;;;;;;5103420;28;20048;-56
2021/07/03 14:34:37;;;;;;;1.85;0.43;;;;;;;;;;5092923;28;20075;-56
2021/07/03 14:37:05;;;;;;;1.38;0.47;;;;;;;;;;5084073;28;20056;-56
2021/07/03 14:39:31;;;;;;;0.63;0.63;;;;;;;;;;5084550;28;20047;-56
2021/07/03 14:41:58;;;;;;;1.45;0.40;;;;;;;;;;5082782;28;20040;-57
2021/07/03 14:44:25;;;;;;;0.40;0.40;;;;;;;;;;5078009;28;20074;-58
2021/07/03 14:46:52;;;;;;;0.90;0.47;;;;;;;;;;5091452;28;20051;-55